Nanticoke River Bridgeville DE USA current weather conditions

sailwx.info

Wind from 348 at 2 knots gusting 4

Air temperature -4.7° C
Dewpoint -14.0° C

Last reported at 2019-Nov-13 09:00 UTC.
Time now 2019-Nov-13 09:37 UTC

Location: N 38°43' W 075°35'.
View on Google Maps.

See reports from other nearby stations

  
Tides and Currents Weather Stations Pressure Air Temp Water Temp Dewpoint Dewpoint Depression Visibility Wind Speed Wind Dir Waves Ship Positions
date/time (UTC)wind fromknots sea level pressurealtimeterstation pressurevisibilityair tempwater tempwave heightnotes
2019-Nov-13 09:00 348 2 gusting 4 -4.7
2019-Nov-13 08:55 348 2 gusting 3 -4.8
2019-Nov-13 08:50 352 2 gusting 3 -4.8
2019-Nov-13 08:45 343 1 gusting 3 -4.8
2019-Nov-13 08:40 340 1 gusting 3 -4.7
2019-Nov-13 08:35 344 2 gusting 3 -4.6
2019-Nov-13 08:30 335 1 gusting 4 -4.7
2019-Nov-13 08:25 340 1 gusting 3 -4.4
2019-Nov-13 08:20 345 2 gusting 4 -4.3
2019-Nov-13 08:15 346 2 gusting 3 -4.3
2019-Nov-13 08:10 352 2 gusting 3 -4.4
2019-Nov-13 08:05 005 2 gusting 3 -4.3
2019-Nov-13 08:00 357 2 gusting 4 -4.2
2019-Nov-13 07:55 003 2 gusting 4 -4.3
2019-Nov-13 07:50 010 2 gusting 4 -4.2
2019-Nov-13 07:45 007 2 gusting 4 -4.0
2019-Nov-13 07:40 002 3 gusting 5 -3.9
2019-Nov-13 07:35 005 3 gusting 6 -4.0
2019-Nov-13 07:30 010 3 gusting 6 -3.8
2019-Nov-13 07:25 010 3 gusting 5 -3.8
2019-Nov-13 07:20 015 3 gusting 5 -3.8
2019-Nov-13 07:15 013 4 gusting 6 -3.7
2019-Nov-13 07:10 013 4 gusting 8 -3.5
2019-Nov-13 07:05 015 5 gusting 8 -3.5
2019-Nov-13 07:00 017 4 gusting 8 -3.5
2019-Nov-13 06:55 011 4 gusting 6 -3.4
2019-Nov-13 06:50 010 5 gusting 9 -3.4
2019-Nov-13 06:45 012 4 gusting 11 -3.4
2019-Nov-13 06:40 012 4 gusting 7 -3.3
2019-Nov-13 06:35 013 5 gusting 8 -3.3
2019-Nov-13 06:30 013 4 gusting 7 -3.2
2019-Nov-13 06:25 008 5 gusting 9 -3.0
2019-Nov-13 06:20 007 5 gusting 9 -3.0
2019-Nov-13 06:15 005 5 gusting 9 -2.9
2019-Nov-13 06:10 010 5 gusting 10 -2.9
2019-Nov-13 06:05 014 5 gusting 9 -2.9
2019-Nov-13 06:00 017 5 gusting 10 -2.9
2019-Nov-13 05:55 013 4 gusting 8 -2.8
2019-Nov-13 05:50 014 5 gusting 10 -2.7
2019-Nov-13 05:45 010 5 gusting 9 -2.6
2019-Nov-13 05:40 015 5 gusting 9 -2.6
2019-Nov-13 05:35 020 6 gusting 12 -2.5
2019-Nov-13 05:30 013 5 gusting 9 -2.4
2019-Nov-13 05:25 012 5 gusting 10 -2.3
2019-Nov-13 05:20 012 5 gusting 10 -2.3
2019-Nov-13 05:15 010 5 gusting 10 -2.1
2019-Nov-13 05:10 005 5 gusting 11 -2.1
2019-Nov-13 05:05 010 6 gusting 14 -2.1
2019-Nov-13 05:00 008 5 gusting 10 -2.0
2019-Nov-13 04:55 010 7 gusting 12 -1.9
2019-Nov-13 04:50 013 6 gusting 11 -2.0
2019-Nov-13 04:45 014 6 gusting 9 -1.8
2019-Nov-13 04:40 015 7 gusting 13 -1.7
2019-Nov-13 04:35 018 8 gusting 14 -1.6
2019-Nov-13 04:30 010 8 gusting 13 -1.6
2019-Nov-13 04:25 014 8 gusting 13 -1.6
2019-Nov-13 04:20 021 5 gusting 9 -1.6
2019-Nov-13 04:15 015 5 gusting 10 -1.4
2019-Nov-13 04:10 014 6 gusting 12 -1.3
2019-Nov-13 04:05 012 5 gusting 10 -1.4
2019-Nov-13 04:00 018 5 gusting 10 -1.2
2019-Nov-13 03:55 015 7 gusting 12 -1.1
2019-Nov-13 03:50 015 6 gusting 13 -1.0
2019-Nov-13 03:45 016 7 gusting 14 -0.9
2019-Nov-13 03:40 012 7 gusting 13 -0.9
2019-Nov-13 03:35 011 7 gusting 12 -0.7
2019-Nov-13 03:30 012 8 gusting 18 -0.6
2019-Nov-13 03:25 015 6 gusting 11 -0.5
2019-Nov-13 03:20 015 6 gusting 13 -0.3
2019-Nov-13 03:15 008 7 gusting 12 -0.2
2019-Nov-13 03:10 013 6 gusting 11 -0.3
2019-Nov-13 03:05 010 5 gusting 10 -0.3
2019-Nov-13 03:00 006 6 gusting 11 -0.3
2019-Nov-13 02:55 009 6 gusting 10 -0.3
2019-Nov-13 02:50 012 6 gusting 12 -0.3
2019-Nov-13 02:45 010 6 gusting 10 -0.3
2019-Nov-13 02:40 007 6 gusting 9 -0.4
2019-Nov-13 02:35 004 6 gusting 10 -0.4
2019-Nov-13 02:30 005 6 gusting 10 -0.4
2019-Nov-13 02:25 011 5 gusting 8 -0.3
2019-Nov-13 02:20 015 6 gusting 13 -0.1
2019-Nov-13 02:15 008 7 gusting 12 0.0
2019-Nov-13 02:10 012 7 gusting 10 -0.1
2019-Nov-13 02:05 011 6 gusting 10 -0.1
2019-Nov-13 02:00 016 6 gusting 12 -0.0
2019-Nov-13 01:55 022 5 gusting 12 -0.1
2019-Nov-13 01:50 013 5 gusting 10 -0.1
2019-Nov-13 01:45 010 6 gusting 10 -0.1
2019-Nov-13 01:40 011 4 gusting 8 -0.1
2019-Nov-13 01:35 011 5 gusting 8 -0.1
2019-Nov-13 01:30 020 4 gusting 7 -0.0
2019-Nov-13 01:25 017 5 gusting 10 0.2
2019-Nov-13 01:20 014 6 gusting 11 0.3
2019-Nov-13 01:15 013 6 gusting 10 0.4
2019-Nov-13 01:10 014 7 gusting 11 0.4
2019-Nov-13 01:05 013 5 gusting 9 0.5
2019-Nov-13 01:00 019 7 gusting 10 0.5
2019-Nov-13 00:55 017 6 gusting 11 0.5
2019-Nov-13 00:50 015 6 gusting 12 0.5
2019-Nov-13 00:45 019 5 gusting 11 0.5
2019-Nov-13 00:40 018 6 gusting 10 0.4
2019-Nov-13 00:35 020 5 gusting 9 0.3
2019-Nov-13 00:30 022 4 gusting 7 0.3
2019-Nov-13 00:25 018 5 gusting 10 0.3
2019-Nov-13 00:20 019 4 gusting 8 0.2
2019-Nov-13 00:15 020 5 gusting 8 0.3
2019-Nov-13 00:10 019 4 gusting 7 0.3
2019-Nov-13 00:05 016 5 gusting 8 0.3
2019-Nov-13 00:00 019 4 gusting 7 0.4
2019-Nov-12 23:55 013 4 gusting 7 0.4
2019-Nov-12 23:50 016 4 gusting 6 0.4
2019-Nov-12 23:45 015 4 gusting 6 0.4
2019-Nov-12 23:40 018 3 gusting 6 0.4
2019-Nov-12 23:35 013 2 gusting 5 0.4
2019-Nov-12 23:30 014 3 gusting 5 0.5
2019-Nov-12 23:25 016 2 gusting 4 0.7
2019-Nov-12 23:20 012 3 gusting 5 0.7
2019-Nov-12 23:15 017 3 gusting 5 0.8
2019-Nov-12 23:10 011 3 gusting 6 0.9
2019-Nov-12 23:05 010 3 gusting 5 1.0
2019-Nov-12 23:00 009 4 gusting 6 1.0
2019-Nov-12 22:55 010 5 gusting 8 1.1
2019-Nov-12 22:50 009 5 gusting 7 1.1
2019-Nov-12 22:45 009 5 gusting 8 1.2
2019-Nov-12 22:40 009 5 gusting 8 1.2
2019-Nov-12 22:35 021 5 gusting 8 1.2
2019-Nov-12 22:30 019 4 gusting 7 1.2
2019-Nov-12 22:25 017 4 gusting 7 1.3
2019-Nov-12 22:20 022 4 gusting 10 1.4
2019-Nov-12 22:15 016 4 gusting 7 1.5
2019-Nov-12 22:10 016 5 gusting 8 1.6
2019-Nov-12 22:05 011 6 gusting 14 1.8
2019-Nov-12 22:00 010 6 gusting 9 1.9
2019-Nov-12 21:55 011 5 gusting 9 2.0
2019-Nov-12 21:50 014 4 gusting 10 2.0
2019-Nov-12 21:45 009 5 gusting 8 2.1
2019-Nov-12 21:40 017 5 gusting 9 2.1
2019-Nov-12 21:35 012 4 gusting 7 2.1
2019-Nov-12 21:30 005 4 gusting 7 2.2
2019-Nov-12 21:25 002 4 gusting 9 2.3
2019-Nov-12 21:20 356 5 gusting 7 2.3
2019-Nov-12 21:15 360 5 gusting 9 2.3
2019-Nov-12 21:10 001 6 gusting 10 2.4
2019-Nov-12 21:05 356 5 gusting 9 2.4
2019-Nov-12 21:00 353 6 gusting 11 2.4
2019-Nov-12 20:55 355 7 gusting 12 2.4
2019-Nov-12 20:50 351 5 gusting 10 2.3
2019-Nov-12 20:45 352 6 gusting 11 2.2
2019-Nov-12 20:40 351 6 gusting 10 2.2
2019-Nov-12 20:35 359 6 gusting 12 2.1
2019-Nov-12 20:30 356 6 gusting 12 2.1
2019-Nov-12 20:25 353 5 gusting 13 1.9
2019-Nov-12 20:20 351 5 gusting 10 1.8
2019-Nov-12 20:15 348 5 gusting 8 1.6
2019-Nov-12 20:10 345 4 gusting 8 1.4
2019-Nov-12 20:05 354 4 gusting 7 1.2
2019-Nov-12 20:00 001 4 gusting 7 1.0
2019-Nov-12 19:55 350 5 gusting 11 0.9
2019-Nov-12 19:50 331 5 gusting 9 0.7
2019-Nov-12 19:45 348 5 gusting 12 0.6
2019-Nov-12 19:40 350 5 gusting 10 0.5
2019-Nov-12 19:35 352 6 gusting 9 0.5
2019-Nov-12 19:30 349 6 gusting 10 0.5
2019-Nov-12 19:25 345 4 gusting 8 0.6
2019-Nov-12 19:20 348 4 gusting 8 0.5
2019-Nov-12 19:15 346 5 gusting 9 0.5
2019-Nov-12 19:10 346 5 gusting 11 0.5
2019-Nov-12 19:05 340 5 gusting 9 0.4
2019-Nov-12 19:00 333 5 gusting 11 0.3
2019-Nov-12 18:55 329 4 gusting 7 0.4
2019-Nov-12 18:50 337 4 gusting 8 0.4
2019-Nov-12 18:45 334 4 gusting 7 0.4
2019-Nov-12 18:40 333 5 gusting 9 0.4
2019-Nov-12 18:35 331 4 gusting 7 0.4
2019-Nov-12 18:30 336 6 gusting 10 0.4
2019-Nov-12 18:25 345 5 gusting 8 0.4
2019-Nov-12 18:20 347 5 gusting 10 0.5
2019-Nov-12 18:15 349 5 gusting 8 0.7
2019-Nov-12 18:10 350 5 gusting 10 0.8
2019-Nov-12 18:05 348 6 gusting 10 0.9
2019-Nov-12 18:00 347 7 gusting 11 1.0
2019-Nov-12 17:55 344 6 gusting 12 1.1
2019-Nov-12 17:50 345 8 gusting 13 1.2
2019-Nov-12 17:45 349 8 gusting 12 1.3
2019-Nov-12 17:40 351 11 gusting 19 1.6
2019-Nov-12 17:35 353 12 gusting 21 2.3
2019-Nov-12 17:30 349 9 gusting 17 2.7
2019-Nov-12 17:25 351 7 gusting 13 2.8
2019-Nov-12 17:20 340 7 gusting 12 2.9
2019-Nov-12 17:15 339 7 gusting 12 3.0
2019-Nov-12 17:10 342 6 gusting 11 3.3
2019-Nov-12 17:05 345 8 gusting 14 3.5
2019-Nov-12 17:00 338 8 gusting 13 3.6
2019-Nov-12 16:55 344 8 gusting 14 3.9
2019-Nov-12 16:50 334 9 gusting 18 4.2
2019-Nov-12 16:45 352 10 gusting 17 4.5
2019-Nov-12 16:40 341 8 gusting 15 4.7
2019-Nov-12 16:35 344 6 gusting 11 5.0
2019-Nov-12 16:30 342 5 gusting 12 5.1
2019-Nov-12 16:25 326 5 gusting 9 5.1
2019-Nov-12 16:20 321 6 gusting 14 5.1
2019-Nov-12 16:15 323 5 gusting 12 5.2
2019-Nov-12 16:10 324 7 gusting 14 5.2
2019-Nov-12 16:05 322 7 gusting 12 5.3
2019-Nov-12 16:00 328 7 gusting 14 5.4
2019-Nov-12 15:55 326 7 gusting 14 5.6
2019-Nov-12 15:50 332 6 gusting 12 5.7
2019-Nov-12 15:45 336 7 gusting 13 6.0
2019-Nov-12 15:40 335 9 gusting 15 6.2
2019-Nov-12 15:35 327 10 gusting 15 6.6
2019-Nov-12 15:30 326 7 gusting 12 6.9
2019-Nov-12 15:25 328 7 gusting 14 7.0
2019-Nov-12 15:20 321 5 gusting 10 7.1
2019-Nov-12 15:15 320 6 gusting 12 7.2
2019-Nov-12 15:10 320 6 gusting 12 7.3
2019-Nov-12 15:05 326 7 gusting 12 7.4
2019-Nov-12 15:00 328 6 gusting 11 7.5
2019-Nov-12 14:55 323 6 gusting 11 7.6
2019-Nov-12 14:50 323 7 gusting 13 7.8
2019-Nov-12 14:45 322 7 gusting 14 7.9
2019-Nov-12 14:40 322 8 gusting 13 8.1
2019-Nov-12 14:35 319 7 gusting 14 8.3
2019-Nov-12 14:30 312 8 gusting 14 8.6
2019-Nov-12 14:25 315 8 gusting 14 8.9
2019-Nov-12 14:20 315 7 gusting 13 9.4
2019-Nov-12 14:15 317 6 gusting 14 10.3
2019-Nov-12 14:10 297 5 gusting 8 10.5
2019-Nov-12 14:05 299 4 gusting 8 10.6
2019-Nov-12 14:00 302 4 gusting 7 10.6
2019-Nov-12 13:55 299 4 gusting 7 10.7
2019-Nov-12 13:50 301 3 gusting 7 10.7
2019-Nov-12 13:45 300 4 gusting 7 10.7
2019-Nov-12 13:40 303 3 gusting 6 10.8
2019-Nov-12 13:35 305 3 gusting 7 10.9
2019-Nov-12 13:30 304 4 gusting 6 11.0
2019-Nov-12 13:25 302 6 gusting 9 11.1
2019-Nov-12 13:20 301 6 gusting 9 11.2
2019-Nov-12 13:15 305 5 gusting 10 11.5
2019-Nov-12 13:10 313 4 gusting 10 11.8
2019-Nov-12 13:05 311 3 gusting 7 12.0
2019-Nov-12 13:00 291 4 gusting 7 12.0
2019-Nov-12 12:55 287 4 gusting 7 12.1
2019-Nov-12 12:50 284 5 gusting 8 12.3
2019-Nov-12 12:45 280 4 gusting 7 12.5
2019-Nov-12 12:40 276 3 gusting 7 12.7
2019-Nov-12 12:35 275 4 gusting 7 13.0
2019-Nov-12 12:30 272 3 gusting 9 13.2
2019-Nov-12 12:25 271 3 gusting 6 13.4
2019-Nov-12 12:20 267 3 gusting 7 13.4
2019-Nov-12 12:15 262 3 gusting 7 13.4
2019-Nov-12 12:10 261 3 gusting 6 13.4
2019-Nov-12 12:05 247 2 gusting 7 13.4
2019-Nov-12 12:00 262 3 gusting 7 13.4
2019-Nov-12 11:55 256 2 gusting 5 13.4
2019-Nov-12 11:50 233 1 gusting 4 13.5
2019-Nov-12 11:45 239 1 gusting 3 13.5
2019-Nov-12 11:40 243 2 gusting 4 13.5
2019-Nov-12 11:35 243 1 gusting 6 13.6
2019-Nov-12 11:30 254 2 gusting 5 13.6
2019-Nov-12 11:25 246 2 gusting 5 13.6
2019-Nov-12 11:20 243 1 gusting 2 13.6
2019-Nov-12 11:15 242 2 gusting 5 13.7
2019-Nov-12 11:10 263 2 gusting 5 13.7
2019-Nov-12 11:05 247 2 gusting 5 13.7
2019-Nov-12 11:00 245 2 gusting 5 13.8
2019-Nov-12 10:55 234 2 gusting 6 13.8
2019-Nov-12 10:50 240 2 gusting 8 13.8
2019-Nov-12 10:45 237 2 gusting 7 13.7
2019-Nov-12 10:40 248 2 gusting 7 13.7
2019-Nov-12 10:35 255 2 gusting 6 13.8
2019-Nov-12 10:30 245 2 gusting 7 13.8
2019-Nov-12 10:25 236 3 gusting 11 13.8
2019-Nov-12 10:20 235 2 gusting 5 13.9
2019-Nov-12 10:15 238 3 gusting 6 13.8
2019-Nov-12 10:10 225 3 gusting 6 13.8
2019-Nov-12 10:05 231 3 gusting 7 13.9
2019-Nov-12 10:00 223 4 gusting 10 13.9
2019-Nov-12 09:55 225 3 gusting 8 13.8
2019-Nov-12 09:50 233 3 gusting 9 13.9
2019-Nov-12 09:45 226 3 gusting 9 13.9
2019-Nov-12 09:40 220 4 gusting 9 13.9
2019-Nov-12 09:35 215 5 gusting 9 13.9
2019-Nov-12 09:30 224 3 gusting 6 13.9
2019-Nov-12 09:25 221 3 gusting 8 13.9
2019-Nov-12 09:20 215 4 gusting 8 14.0
2019-Nov-12 09:15 221 4 gusting 10 14.0
2019-Nov-12 09:10 227 4 gusting 9 14.0
2019-Nov-12 09:05 224 4 gusting 7 14.0
2019-Nov-12 09:00 223 3 gusting 10 14.1
2019-Nov-12 08:55 233 4 gusting 8 14.2
2019-Nov-12 08:50 234 3 gusting 9 14.3
2019-Nov-12 08:45 230 5 gusting 14 14.4
2019-Nov-12 08:40 229 5 gusting 9 14.4
2019-Nov-12 08:35 222 4 gusting 9 14.5
2019-Nov-12 08:30 230 4 gusting 10 14.5
2019-Nov-12 08:25 222 5 gusting 11 14.5
2019-Nov-12 08:20 232 4 gusting 10 14.5
2019-Nov-12 08:15 219 5 gusting 11 14.6
2019-Nov-12 08:10 208 5 gusting 12 14.6
2019-Nov-12 08:05 223 4 gusting 9 14.5
2019-Nov-12 08:00 227 4 gusting 11 14.5
2019-Nov-12 07:55 221 4 gusting 9 14.5
2019-Nov-12 07:50 231 4 gusting 12 14.4
2019-Nov-12 07:45 217 4 gusting 8 14.5
2019-Nov-12 07:40 220 4 gusting 9 14.4
2019-Nov-12 07:35 218 4 gusting 14 14.4
2019-Nov-12 07:30 211 4 gusting 11 14.4
2019-Nov-12 07:25 215 4 gusting 10 14.4
2019-Nov-12 07:20 208 5 gusting 13 14.5
2019-Nov-12 07:15 214 5 gusting 10 14.5
2019-Nov-12 07:10 214 4 gusting 11 14.5
2019-Nov-12 07:05 211 5 gusting 10 14.5
2019-Nov-12 07:00 223 3 gusting 10 14.5
2019-Nov-12 06:55 210 4 gusting 12 14.5
2019-Nov-12 06:50 217 3 gusting 9 14.7
2019-Nov-12 06:45 214 4 gusting 10 14.6
2019-Nov-12 06:40 208 3 gusting 7 14.8
2019-Nov-12 06:35 208 5 gusting 10 14.9
2019-Nov-12 06:30 206 4 gusting 9 14.9
2019-Nov-12 06:25 211 5 gusting 9 14.9
2019-Nov-12 06:20 211 4 gusting 9 15.0
2019-Nov-12 06:15 209 4 gusting 9 15.0
2019-Nov-12 06:10 211 4 gusting 8 14.9
2019-Nov-12 06:05 215 4 gusting 11 14.9
2019-Nov-12 06:00 206 4 gusting 9 15.0
2019-Nov-12 05:55 213 5 gusting 10 14.9
2019-Nov-12 05:50 219 4 gusting 9 14.9
2019-Nov-12 05:45 217 4 gusting 7 14.9
2019-Nov-12 05:40 214 3 gusting 8 14.9
2019-Nov-12 05:35 222 4 gusting 8 14.9
2019-Nov-12 05:30 210 5 gusting 11 14.9
2019-Nov-12 05:25 214 4 gusting 10 14.9
2019-Nov-12 05:20 210 4 gusting 8 14.9
2019-Nov-12 05:15 207 5 gusting 10 14.9
2019-Nov-12 05:10 203 7 gusting 14 14.9
2019-Nov-12 05:05 210 5 gusting 11 14.8
2019-Nov-12 05:00 207 6 gusting 12 14.8
2019-Nov-12 04:55 208 5 gusting 13 14.7
2019-Nov-12 04:50 210 5 gusting 9 14.7
2019-Nov-12 04:45 205 5 gusting 9 14.7
2019-Nov-12 04:40 209 5 gusting 10 14.7
2019-Nov-12 04:35 210 5 gusting 9 14.6
2019-Nov-12 04:30 203 4 gusting 9 14.7
2019-Nov-12 04:25 202 6 gusting 11 14.8
2019-Nov-12 04:20 210 4 gusting 8 14.7
2019-Nov-12 04:15 206 4 gusting 8 14.8
2019-Nov-12 04:10 212 4 gusting 11 14.8
2019-Nov-12 04:05 208 4 gusting 9 14.8
2019-Nov-12 04:00 208 4 gusting 9 14.9
2019-Nov-12 03:55 209 5 gusting 9 15.0
2019-Nov-12 03:50 210 4 gusting 8 14.9
2019-Nov-12 03:45 213 4 gusting 8 15.0
2019-Nov-12 03:40 207 5 gusting 13 15.1
2019-Nov-12 03:35 209 4 gusting 9 15.0
2019-Nov-12 03:30 206 5 gusting 13 15.1
2019-Nov-12 03:25 211 4 gusting 11 15.2
2019-Nov-12 03:20 215 4 gusting 10 15.3
2019-Nov-12 03:15 213 4 gusting 8 15.2
2019-Nov-12 03:10 212 5 gusting 11 15.2
2019-Nov-12 03:05 210 4 gusting 9 15.2
2019-Nov-12 03:00 213 5 gusting 9 15.1
2019-Nov-12 02:55 218 4 gusting 10 15.0
2019-Nov-12 02:50 204 5 gusting 11 14.9
2019-Nov-12 02:45 208 4 gusting 8 14.7
2019-Nov-12 02:40 208 4 gusting 7 14.5
2019-Nov-12 02:35 209 3 gusting 7 14.4
2019-Nov-12 02:30 213 4 gusting 7 14.4
2019-Nov-12 02:25 208 4 gusting 8 14.3
2019-Nov-12 02:20 212 4 gusting 8 14.2
2019-Nov-12 02:15 208 4 gusting 11 14.2
2019-Nov-12 02:10 209 4 gusting 9 14.1
2019-Nov-12 02:05 208 4 gusting 7 14.0
2019-Nov-12 02:00 208 4 gusting 8 13.8
2019-Nov-12 01:55 207 3 gusting 10 13.6
2019-Nov-12 01:50 209 4 gusting 7 13.5
2019-Nov-12 01:45 204 4 gusting 9 13.4
2019-Nov-12 01:40 208 4 gusting 7 13.4
2019-Nov-12 01:35 201 3 gusting 7 13.3
2019-Nov-12 01:30 201 4 gusting 8 13.4
2019-Nov-12 01:25 210 3 gusting 6 13.4
2019-Nov-12 01:20 206 3 gusting 7 13.4
2019-Nov-12 01:15 209 3 gusting 6 13.4
2019-Nov-12 01:10 213 3 gusting 6 13.6
2019-Nov-12 01:05 221 2 gusting 6 13.6
2019-Nov-12 01:00 214 3 gusting 6 13.7
2019-Nov-12 00:55 208 4 gusting 8 13.8
2019-Nov-12 00:50 215 4 gusting 7 13.9
2019-Nov-12 00:45 211 4 gusting 9 14.0
2019-Nov-12 00:40 207 4 gusting 7 13.9
2019-Nov-12 00:35 198 4 gusting 9 13.7
2019-Nov-12 00:30 191 4 gusting 7 13.4
2019-Nov-12 00:25 181 4 gusting 6 13.2
2019-Nov-12 00:20 177 5 gusting 10 13.2
2019-Nov-12 00:15 183 5 gusting 9 13.0
2019-Nov-12 00:10 177 5 gusting 8 13.0
2019-Nov-12 00:05 174 3 gusting 7 13.0
2019-Nov-12 00:00 178 3 gusting 6 13.0
2019-Nov-11 23:55 172 5 gusting 8 13.3
2019-Nov-11 23:50 171 5 gusting 7 13.5
2019-Nov-11 23:45 171 5 gusting 7 13.5
2019-Nov-11 23:40 173 3 gusting 6 13.6
2019-Nov-11 23:35 171 4 gusting 8 13.7
2019-Nov-11 23:30 180 3 gusting 5 13.8
2019-Nov-11 23:25 183 3 gusting 6 14.0
2019-Nov-11 23:20 180 3 gusting 6 14.3
2019-Nov-11 23:15 185 4 gusting 8 14.4
2019-Nov-11 23:10 183 3 gusting 6 14.3
2019-Nov-11 23:05 182 4 gusting 6 14.4
2019-Nov-11 23:00 188 3 gusting 7 14.4
2019-Nov-11 22:55 191 2 gusting 5 14.4
2019-Nov-11 22:50 198 3 gusting 6 14.6
2019-Nov-11 22:45 203 3 gusting 6 14.8
2019-Nov-11 22:40 200 3 gusting 6 15.0
2019-Nov-11 22:35 206 3 gusting 6 15.1
2019-Nov-11 22:30 203 3 gusting 6 15.3
2019-Nov-11 22:25 203 3 gusting 5 15.5
2019-Nov-11 22:20 205 3 gusting 7 15.6
2019-Nov-11 22:15 208 3 gusting 6 15.8
2019-Nov-11 22:10 205 4 gusting 7 16.0
2019-Nov-11 22:05 201 4 gusting 8 16.1
2019-Nov-11 22:00 207 4 gusting 8 16.3
2019-Nov-11 21:55 203 3 gusting 7 16.5
2019-Nov-11 21:50 206 5 gusting 10 16.7
2019-Nov-11 21:45 207 4 gusting 8 16.9
2019-Nov-11 21:40 207 4 gusting 7 17.1
2019-Nov-11 21:35 206 3 gusting 8 17.3
2019-Nov-11 21:30 210 3 gusting 6 17.4
2019-Nov-11 21:25 210 2 gusting 5 17.6
2019-Nov-11 21:20 207 3 gusting 6 17.7
2019-Nov-11 21:15 201 4 gusting 8 17.8
2019-Nov-11 21:10 187 3 gusting 6 17.9
2019-Nov-11 21:05 177 5 gusting 10 18.2
2019-Nov-11 21:00 175 5 gusting 9 18.6
2019-Nov-11 20:55 174 5 gusting 11 18.8
2019-Nov-11 20:50 168 5 gusting 9 18.9
2019-Nov-11 20:45 169 6 gusting 10 19.1
2019-Nov-11 20:40 172 5 gusting 8 19.3
2019-Nov-11 20:35 181 4 gusting 8 19.6
2019-Nov-11 20:30 193 4 gusting 8 19.7
2019-Nov-11 20:25 184 5 gusting 10 19.8
2019-Nov-11 20:20 192 3 gusting 7 20.1
2019-Nov-11 20:15 190 3 gusting 7 20.1
2019-Nov-11 20:10 192 3 gusting 5 20.1
2019-Nov-11 20:05 189 3 gusting 5 20.0
2019-Nov-11 20:00 196 4 gusting 8 20.0
2019-Nov-11 19:55 175 4 gusting 7 20.0
2019-Nov-11 19:50 182 4 gusting 7 20.1
2019-Nov-11 19:45 173 4 gusting 6 20.0
2019-Nov-11 19:40 183 4 gusting 9 20.0
2019-Nov-11 19:35 183 4 gusting 9 20.1
2019-Nov-11 19:30 193 3 gusting 7 20.0
2019-Nov-11 19:25 203 4 gusting 8 20.1
2019-Nov-11 19:20 199 2 gusting 5 20.1
2019-Nov-11 19:15 185 3 gusting 5 19.8
2019-Nov-11 19:10 187 3 gusting 7 19.6
2019-Nov-11 19:05 175 5 gusting 9 19.6
2019-Nov-11 19:00 175 4 gusting 8 19.9
2019-Nov-11 18:55 200 3 gusting 6 19.7
2019-Nov-11 18:50 196 3 gusting 7 19.9
2019-Nov-11 18:45 187 3 gusting 5 20.0
2019-Nov-11 18:40 188 3 gusting 5 19.7
2019-Nov-11 18:35 182 3 gusting 5 19.8
2019-Nov-11 18:30 180 3 gusting 5 19.6
2019-Nov-11 18:25 176 3 gusting 5 19.3
2019-Nov-11 18:20 171 3 gusting 5 19.4
2019-Nov-11 18:15 186 3 gusting 5 19.4
2019-Nov-11 18:10 197 2 gusting 5 19.4
2019-Nov-11 18:05 194 2 gusting 5 19.3
2019-Nov-11 18:00 202 2 gusting 4 19.2
2019-Nov-11 17:55 201 2 gusting 4 19.1
2019-Nov-11 17:50 192 2 gusting 5 19.2
2019-Nov-11 17:45 203 1 gusting 3 19.1
2019-Nov-11 17:40 196 1 gusting 3 18.9
2019-Nov-11 17:35 193 2 gusting 4 18.9
2019-Nov-11 17:30 217 1 gusting 3 18.6
2019-Nov-11 17:25 213 1 gusting 3 18.2
2019-Nov-11 17:20 175 1 gusting 3 17.9
2019-Nov-11 17:15 164 3 gusting 4 18.0
2019-Nov-11 17:10 210 1 gusting 3 18.1
2019-Nov-11 17:05 221 2 gusting 4 17.6
2019-Nov-11 17:00 214 2 gusting 3 17.7
2019-Nov-11 16:55 190 2 gusting 4 17.3
2019-Nov-11 16:50 175 3 gusting 5 16.9
2019-Nov-11 16:45 173 3 gusting 5 16.9
2019-Nov-11 16:40 200 2 gusting 4 16.8
2019-Nov-11 16:35 169 2 gusting 3 17.0
2019-Nov-11 16:30 197 1 gusting 3 16.8
2019-Nov-11 16:25 225 1 gusting 2 16.6
2019-Nov-11 16:20 211 2 gusting 3 16.5
2019-Nov-11 16:15 244 1 gusting 2 16.2
2019-Nov-11 16:10 276 1 gusting 3 16.0
2019-Nov-11 16:05 246 2 gusting 4 16.2
2019-Nov-11 16:00 234 1 gusting 3 16.1
2019-Nov-11 15:55 190 2 gusting 4 15.8
2019-Nov-11 15:50 210 2 gusting 5 15.7
2019-Nov-11 15:45 206 2 gusting 3 15.4
2019-Nov-11 15:40 222 1 gusting 4 15.2
2019-Nov-11 15:35 221 2 gusting 4 15.1
2019-Nov-11 15:30 194 3 gusting 5 15.2
2019-Nov-11 15:25 215 1 gusting 4 15.3
2019-Nov-11 15:20 231 1 gusting 3 15.0
2019-Nov-11 15:15 206 2 gusting 4 14.6
2019-Nov-11 15:10 207 2 gusting 5 14.3
2019-Nov-11 15:05 201 3 gusting 5 14.2
2019-Nov-11 15:00 203 2 gusting 4 13.9
2019-Nov-11 14:55 203 2 gusting 4 13.7
2019-Nov-11 14:50 241 2 gusting 5 13.5
2019-Nov-11 14:45 248 2 gusting 4 13.4
2019-Nov-11 14:40 239 2 gusting 4 13.3
2019-Nov-11 14:35 226 2 gusting 5 13.2
2019-Nov-11 14:30 250 2 gusting 4 13.1
2019-Nov-11 14:25 222 2 gusting 4 12.8
2019-Nov-11 14:20 234 2 gusting 5 12.6
2019-Nov-11 14:15 250 2 gusting 6 12.6
2019-Nov-11 14:10 234 2 gusting 5 12.5
2019-Nov-11 14:05 219 2 gusting 6 12.4
2019-Nov-11 14:00 234 1 gusting 4 12.2
2019-Nov-11 13:55 217 2 gusting 4 11.9
2019-Nov-11 13:50 219 2 gusting 4 11.8
2019-Nov-11 13:45 206 1 gusting 5 11.5
2019-Nov-11 13:40 214 2 gusting 4 11.2
2019-Nov-11 13:35 221 1 gusting 3 11.0
2019-Nov-11 13:30 218 1 gusting 3 10.8
2019-Nov-11 13:25 212 2 gusting 4 10.6
2019-Nov-11 13:20 207 2 gusting 4 10.4
2019-Nov-11 13:15 217 1 gusting 3 10.1
2019-Nov-11 13:10 205 2 gusting 5 9.8
2019-Nov-11 13:05 200 1 gusting 3 9.7
2019-Nov-11 13:00 193 1 gusting 3 9.6
2019-Nov-11 12:55 180 1 gusting 3 9.3
2019-Nov-11 12:50 199 1 gusting 3 8.9
2019-Nov-11 12:45 187 1 gusting 2 8.6
2019-Nov-11 12:40 191 0 gusting 2 8.3
2019-Nov-11 12:35 170 0 gusting 1 7.9
2019-Nov-11 12:30 192 0 gusting 1 7.6
2019-Nov-11 12:25 184 0 gusting 1 7.3
2019-Nov-11 12:20 184 0 gusting 1 7.0
2019-Nov-11 12:15 163 1 gusting 1 6.6
2019-Nov-11 12:10 161 1 gusting 1 6.3
2019-Nov-11 12:05 167 1 gusting 2 6.1
2019-Nov-11 12:00 173 1 gusting 1 5.9
2019-Nov-11 11:55 171 1 gusting 1 5.7
2019-Nov-11 11:50 164 0 gusting 1 5.8
2019-Nov-11 11:45 169 1 gusting 2 5.8
2019-Nov-11 11:40 165 1 gusting 2 5.8
2019-Nov-11 11:35 171 1 gusting 2 5.6
2019-Nov-11 11:30 157 1 gusting 1 5.3
2019-Nov-11 11:25 149 1 gusting 1 5.4
2019-Nov-11 11:20 158 0 gusting 1 5.4
2019-Nov-11 11:15 200 0 gusting 0 5.5
2019-Nov-11 11:10 170 0 gusting 1 5.6
2019-Nov-11 11:05 164 0 gusting 1 5.4
2019-Nov-11 11:00 163 0 gusting 1 5.5
2019-Nov-11 10:55 161 0 gusting 0 5.6
2019-Nov-11 10:50 193 0 gusting 1 5.8
2019-Nov-11 10:45 236 0 gusting 1 5.6
2019-Nov-11 10:40 218 0 gusting 0 5.6
2019-Nov-11 10:35 209 0 gusting 1 5.6
2019-Nov-11 10:30 246 0 gusting 0 5.4
2019-Nov-11 10:25 5.5
2019-Nov-11 10:20 142 0 gusting 1 5.6
2019-Nov-11 10:15 139 1 gusting 1 5.5
2019-Nov-11 10:10 146 1 gusting 1 5.2
2019-Nov-11 10:05 140 1 gusting 1 5.0
2019-Nov-11 10:00 147 0 gusting 1 5.0
2019-Nov-11 09:55 167 0 gusting 1 4.9
2019-Nov-11 09:50 161 1 gusting 1 4.3
2019-Nov-11 09:45 134 0 gusting 1 3.9
2019-Nov-11 09:40 124 0 gusting 0 3.9
2019-Nov-11 09:35 090 0 gusting 0 4.2
2019-Nov-11 09:30 070 0 gusting 0 4.2
2019-Nov-11 09:25 065 0 gusting 0 3.8
2019-Nov-11 09:20 081 0 gusting 1 3.7
2019-Nov-11 09:15 3.6
2019-Nov-11 09:10 097 0 gusting 0 3.8
2019-Nov-11 09:05 104 0 gusting 1 4.4
2019-Nov-11 09:00 108 0 gusting 0 4.6